sensor_id;sensor_type;location;lat;lon;timestamp;P1;durP1;ratioP1;P2;durP2;ratioP2
6121;SDS011;3091;51.506;7.672;2023-03-11T00:01:01;37.33;;;35.10;;
6121;SDS011;3091;51.506;7.672;2023-03-11T00:03:29;40.30;;;37.90;;
6121;SDS011;3091;51.506;7.672;2023-03-11T00:05:55;37.97;;;35.47;;
6121;SDS011;3091;51.506;7.672;2023-03-11T00:08:22;38.00;;;35.63;;
6121;SDS011;3091;51.506;7.672;2023-03-11T00:10:53;38.60;;;36.30;;
6121;SDS011;3091;51.506;7.672;2023-03-11T00:13:19;41.07;;;38.57;;
6121;SDS011;3091;51.506;7.672;2023-03-11T00:15:46;41.60;;;39.10;;
6121;SDS011;3091;51.506;7.672;2023-03-11T00:18:13;40.77;;;38.37;;
6121;SDS011;3091;51.506;7.672;2023-03-11T00:20:40;39.17;;;36.77;;
6121;SDS011;3091;51.506;7.672;2023-03-11T00:23:07;38.30;;;36.00;;
6121;SDS011;3091;51.506;7.672;2023-03-11T00:25:36;39.33;;;36.93;;
6121;SDS011;3091;51.506;7.672;2023-03-11T00:28:03;36.63;;;34.37;;
6121;SDS011;3091;51.506;7.672;2023-03-11T00:30:31;38.70;;;36.30;;
6121;SDS011;3091;51.506;7.672;2023-03-11T00:32:57;37.87;;;35.47;;
6121;SDS011;3091;51.506;7.672;2023-03-11T00:35:24;37.37;;;35.07;;
6121;SDS011;3091;51.506;7.672;2023-03-11T00:37:54;38.70;;;36.30;;
6121;SDS011;3091;51.506;7.672;2023-03-11T00:40:22;39.57;;;37.10;;
6121;SDS011;3091;51.506;7.672;2023-03-11T00:42:48;39.20;;;36.80;;
6121;SDS011;3091;51.506;7.672;2023-03-11T00:45:14;40.83;;;38.33;;
6121;SDS011;3091;51.506;7.672;2023-03-11T00:47:41;40.40;;;37.90;;
6121;SDS011;3091;51.506;7.672;2023-03-11T00:50:07;42.60;;;39.90;;
6121;SDS011;3091;51.506;7.672;2023-03-11T00:52:33;42.87;;;40.27;;
6121;SDS011;3091;51.506;7.672;2023-03-11T00:54:59;43.30;;;40.70;;
6121;SDS011;3091;51.506;7.672;2023-03-11T00:57:25;43.73;;;41.13;;
6121;SDS011;3091;51.506;7.672;2023-03-11T00:59:53;45.40;;;42.70;;
6121;SDS011;3091;51.506;7.672;2023-03-11T01:02:26;44.63;;;42.03;;
6121;SDS011;3091;51.506;7.672;2023-03-11T01:04:53;46.13;;;43.43;;
6121;SDS011;3091;51.506;7.672;2023-03-11T01:07:19;47.80;;;45.03;;
6121;SDS011;3091;51.506;7.672;2023-03-11T01:09:45;48.80;;;45.90;;
6121;SDS011;3091;51.506;7.672;2023-03-11T01:12:11;48.60;;;45.80;;
6121;SDS011;3091;51.506;7.672;2023-03-11T01:14:37;48.93;;;46.13;;
6121;SDS011;3091;51.506;7.672;2023-03-11T01:17:03;49.40;;;46.50;;
6121;SDS011;3091;51.506;7.672;2023-03-11T01:19:29;48.70;;;45.80;;
6121;SDS011;3091;51.506;7.672;2023-03-11T01:21:55;49.00;;;46.00;;
6121;SDS011;3091;51.506;7.672;2023-03-11T01:24:21;47.27;;;44.43;;
6121;SDS011;3091;51.506;7.672;2023-03-11T01:26:47;48.13;;;45.20;;
6121;SDS011;3091;51.506;7.672;2023-03-11T01:29:13;51.10;;;48.10;;
6121;SDS011;3091;51.506;7.672;2023-03-11T01:31:39;50.57;;;47.47;;
6121;SDS011;3091;51.506;7.672;2023-03-11T01:34:05;51.87;;;48.77;;
6121;SDS011;3091;51.506;7.672;2023-03-11T01:36:31;52.27;;;49.03;;
6121;SDS011;3091;51.506;7.672;2023-03-11T01:38:57;53.83;;;50.63;;
6121;SDS011;3091;51.506;7.672;2023-03-11T01:41:26;52.90;;;49.80;;
6121;SDS011;3091;51.506;7.672;2023-03-11T01:43:52;53.70;;;50.60;;
6121;SDS011;3091;51.506;7.672;2023-03-11T01:48:49;50.40;;;47.40;;
6121;SDS011;3091;51.506;7.672;2023-03-11T01:51:16;48.13;;;45.27;;
6121;SDS011;3091;51.506;7.672;2023-03-11T01:53:44;43.00;;;40.40;;
6121;SDS011;3091;51.506;7.672;2023-03-11T01:56:10;38.17;;;35.87;;
6121;SDS011;3091;51.506;7.672;2023-03-11T01:58:36;35.30;;;33.20;;
6121;SDS011;3091;51.506;7.672;2023-03-11T02:01:04;32.93;;;30.67;;
6121;SDS011;3091;51.506;7.672;2023-03-11T02:03:31;31.40;;;29.50;;
6121;SDS011;3091;51.506;7.672;2023-03-11T02:05:59;31.63;;;29.53;;
6121;SDS011;3091;51.506;7.672;2023-03-11T02:08:25;29.87;;;28.07;;
6121;SDS011;3091;51.506;7.672;2023-03-11T02:10:53;30.13;;;28.33;;
6121;SDS011;3091;51.506;7.672;2023-03-11T02:13:20;30.03;;;28.13;;
6121;SDS011;3091;51.506;7.672;2023-03-11T02:15:46;28.23;;;26.63;;
6121;SDS011;3091;51.506;7.672;2023-03-11T02:18:12;28.33;;;26.63;;
6121;SDS011;3091;51.506;7.672;2023-03-11T02:23:05;28.17;;;26.57;;
6121;SDS011;3091;51.506;7.672;2023-03-11T02:28:00;27.50;;;26.00;;
6121;SDS011;3091;51.506;7.672;2023-03-11T02:30:27;28.40;;;26.80;;
6121;SDS011;3091;51.506;7.672;2023-03-11T02:32:53;26.83;;;25.23;;
6121;SDS011;3091;51.506;7.672;2023-03-11T02:35:20;26.30;;;24.90;;
6121;SDS011;3091;51.506;7.672;2023-03-11T02:37:47;27.77;;;26.17;;
6121;SDS011;3091;51.506;7.672;2023-03-11T02:43:00;27.00;;;25.50;;
6121;SDS011;3091;51.506;7.672;2023-03-11T02:45:27;25.20;;;23.80;;
6121;SDS011;3091;51.506;7.672;2023-03-11T02:47:55;26.07;;;24.57;;
6121;SDS011;3091;51.506;7.672;2023-03-11T02:50:21;25.67;;;24.27;;
6121;SDS011;3091;51.506;7.672;2023-03-11T02:52:49;26.40;;;24.90;;
6121;SDS011;3091;51.506;7.672;2023-03-11T02:55:16;26.53;;;25.03;;
6121;SDS011;3091;51.506;7.672;2023-03-11T02:57:44;25.43;;;23.97;;
6121;SDS011;3091;51.506;7.672;2023-03-11T03:00:10;26.47;;;24.97;;
6121;SDS011;3091;51.506;7.672;2023-03-11T03:02:38;26.00;;;24.50;;
6121;SDS011;3091;51.506;7.672;2023-03-11T03:05:04;26.70;;;25.20;;
6121;SDS011;3091;51.506;7.672;2023-03-11T03:07:30;26.70;;;25.20;;
6121;SDS011;3091;51.506;7.672;2023-03-11T03:09:56;25.53;;;24.07;;
6121;SDS011;3091;51.506;7.672;2023-03-11T03:12:22;25.50;;;24.10;;
6121;SDS011;3091;51.506;7.672;2023-03-11T03:14:50;25.80;;;24.37;;
6121;SDS011;3091;51.506;7.672;2023-03-11T03:17:16;26.20;;;24.70;;
6121;SDS011;3091;51.506;7.672;2023-03-11T03:19:42;26.43;;;24.83;;
6121;SDS011;3091;51.506;7.672;2023-03-11T03:22:08;25.37;;;23.97;;
6121;SDS011;3091;51.506;7.672;2023-03-11T03:24:34;25.70;;;24.30;;
6121;SDS011;3091;51.506;7.672;2023-03-11T03:27:03;25.10;;;23.70;;
6121;SDS011;3091;51.506;7.672;2023-03-11T03:29:29;23.93;;;22.63;;
6121;SDS011;3091;51.506;7.672;2023-03-11T03:31:55;24.43;;;23.13;;
6121;SDS011;3091;51.506;7.672;2023-03-11T03:34:21;23.87;;;22.60;;
6121;SDS011;3091;51.506;7.672;2023-03-11T03:36:47;23.60;;;22.40;;
6121;SDS011;3091;51.506;7.672;2023-03-11T03:39:13;24.40;;;23.00;;
6121;SDS011;3091;51.506;7.672;2023-03-11T03:41:40;23.80;;;22.50;;
6121;SDS011;3091;51.506;7.672;2023-03-11T03:44:06;23.33;;;22.13;;
6121;SDS011;3091;51.506;7.672;2023-03-11T03:46:32;23.50;;;22.30;;
6121;SDS011;3091;51.506;7.672;2023-03-11T03:48:58;23.90;;;22.60;;
6121;SDS011;3091;51.506;7.672;2023-03-11T03:51:24;24.23;;;22.80;;
6121;SDS011;3091;51.506;7.672;2023-03-11T03:53:50;22.90;;;21.70;;
6121;SDS011;3091;51.506;7.672;2023-03-11T03:56:18;23.00;;;21.80;;
6121;SDS011;3091;51.506;7.672;2023-03-11T03:58:44;22.90;;;21.70;;
6121;SDS011;3091;51.506;7.672;2023-03-11T04:01:10;22.77;;;21.57;;
6121;SDS011;3091;51.506;7.672;2023-03-11T04:03:37;22.20;;;21.10;;
6121;SDS011;3091;51.506;7.672;2023-03-11T04:08:41;22.30;;;21.00;;
6121;SDS011;3091;51.506;7.672;2023-03-11T04:11:07;21.13;;;20.03;;
6121;SDS011;3091;51.506;7.672;2023-03-11T04:13:33;21.40;;;20.30;;
6121;SDS011;3091;51.506;7.672;2023-03-11T04:16:02;21.17;;;20.07;;
6121;SDS011;3091;51.506;7.672;2023-03-11T04:18:28;21.57;;;20.47;;
6121;SDS011;3091;51.506;7.672;2023-03-11T04:20:54;21.53;;;20.43;;
6121;SDS011;3091;51.506;7.672;2023-03-11T04:23:20;21.10;;;20.00;;
6121;SDS011;3091;51.506;7.672;2023-03-11T04:25:46;21.80;;;20.70;;
6121;SDS011;3091;51.506;7.672;2023-03-11T04:28:12;21.30;;;20.20;;
6121;SDS011;3091;51.506;7.672;2023-03-11T04:30:38;22.00;;;20.90;;
6121;SDS011;3091;51.506;7.672;2023-03-11T04:33:04;22.00;;;20.90;;
6121;SDS011;3091;51.506;7.672;2023-03-11T04:35:30;21.37;;;20.27;;
6121;SDS011;3091;51.506;7.672;2023-03-11T04:37:56;22.30;;;21.10;;
6121;SDS011;3091;51.506;7.672;2023-03-11T04:40:22;21.37;;;20.27;;
6121;SDS011;3091;51.506;7.672;2023-03-11T04:42:48;21.67;;;20.47;;
6121;SDS011;3091;51.506;7.672;2023-03-11T04:45:14;20.40;;;19.40;;
6121;SDS011;3091;51.506;7.672;2023-03-11T04:47:42;20.53;;;19.50;;
6121;SDS011;3091;51.506;7.672;2023-03-11T04:50:08;20.73;;;19.63;;
6121;SDS011;3091;51.506;7.672;2023-03-11T04:52:34;20.30;;;19.30;;
6121;SDS011;3091;51.506;7.672;2023-03-11T04:55:00;20.60;;;19.33;;
6121;SDS011;3091;51.506;7.672;2023-03-11T04:57:26;20.80;;;19.70;;
6121;SDS011;3091;51.506;7.672;2023-03-11T04:59:52;20.13;;;19.13;;
6121;SDS011;3091;51.506;7.672;2023-03-11T05:02:18;19.63;;;18.63;;
6121;SDS011;3091;51.506;7.672;2023-03-11T05:04:44;19.67;;;18.67;;
6121;SDS011;3091;51.506;7.672;2023-03-11T05:07:10;19.83;;;18.83;;
6121;SDS011;3091;51.506;7.672;2023-03-11T05:09:36;19.80;;;18.80;;
6121;SDS011;3091;51.506;7.672;2023-03-11T05:12:02;20.60;;;19.50;;
6121;SDS011;3091;51.506;7.672;2023-03-11T05:14:29;20.40;;;19.40;;
6121;SDS011;3091;51.506;7.672;2023-03-11T05:16:55;20.80;;;19.80;;
6121;SDS011;3091;51.506;7.672;2023-03-11T05:19:21;20.10;;;19.10;;
6121;SDS011;3091;51.506;7.672;2023-03-11T05:21:56;21.27;;;19.87;;
6121;SDS011;3091;51.506;7.672;2023-03-11T05:24:22;20.07;;;19.07;;
6121;SDS011;3091;51.506;7.672;2023-03-11T05:26:50;20.07;;;19.07;;
6121;SDS011;3091;51.506;7.672;2023-03-11T05:29:16;20.10;;;19.10;;
6121;SDS011;3091;51.506;7.672;2023-03-11T05:31:42;19.80;;;18.80;;
6121;SDS011;3091;51.506;7.672;2023-03-11T05:34:08;19.67;;;18.67;;
6121;SDS011;3091;51.506;7.672;2023-03-11T05:36:34;19.80;;;18.80;;
6121;SDS011;3091;51.506;7.672;2023-03-11T05:39:00;20.33;;;19.33;;
6121;SDS011;3091;51.506;7.672;2023-03-11T05:41:26;20.33;;;19.33;;
6121;SDS011;3091;51.506;7.672;2023-03-11T05:43:52;21.60;;;20.50;;
6121;SDS011;3091;51.506;7.672;2023-03-11T05:46:18;20.53;;;19.53;;
6121;SDS011;3091;51.506;7.672;2023-03-11T05:48:44;20.97;;;19.97;;
6121;SDS011;3091;51.506;7.672;2023-03-11T05:51:11;21.00;;;20.00;;
6121;SDS011;3091;51.506;7.672;2023-03-11T05:53:37;21.63;;;20.60;;
6121;SDS011;3091;51.506;7.672;2023-03-11T05:56:05;20.90;;;19.90;;
6121;SDS011;3091;51.506;7.672;2023-03-11T05:58:31;21.27;;;20.27;;
6121;SDS011;3091;51.506;7.672;2023-03-11T06:00:57;21.20;;;20.17;;
6121;SDS011;3091;51.506;7.672;2023-03-11T06:03:24;21.60;;;20.60;;
6121;SDS011;3091;51.506;7.672;2023-03-11T06:05:50;22.73;;;21.57;;
6121;SDS011;3091;51.506;7.672;2023-03-11T06:08:17;22.20;;;21.10;;
6121;SDS011;3091;51.506;7.672;2023-03-11T06:10:43;22.13;;;21.03;;
6121;SDS011;3091;51.506;7.672;2023-03-11T06:13:09;22.40;;;21.30;;
6121;SDS011;3091;51.506;7.672;2023-03-11T06:15:35;20.90;;;19.90;;
6121;SDS011;3091;51.506;7.672;2023-03-11T06:18:02;21.13;;;20.03;;
6121;SDS011;3091;51.506;7.672;2023-03-11T06:20:28;21.23;;;20.13;;
6121;SDS011;3091;51.506;7.672;2023-03-11T06:22:54;21.27;;;20.27;;
6121;SDS011;3091;51.506;7.672;2023-03-11T06:25:20;22.30;;;21.30;;
6121;SDS011;3091;51.506;7.672;2023-03-11T06:27:50;21.13;;;20.13;;
6121;SDS011;3091;51.506;7.672;2023-03-11T06:30:17;21.80;;;20.80;;
6121;SDS011;3091;51.506;7.672;2023-03-11T06:32:46;21.37;;;20.37;;
6121;SDS011;3091;51.506;7.672;2023-03-11T06:35:12;21.53;;;20.53;;
6121;SDS011;3091;51.506;7.672;2023-03-11T06:37:39;21.67;;;20.67;;
6121;SDS011;3091;51.506;7.672;2023-03-11T06:40:05;21.30;;;20.30;;
6121;SDS011;3091;51.506;7.672;2023-03-11T06:42:32;21.07;;;20.07;;
6121;SDS011;3091;51.506;7.672;2023-03-11T06:44:58;21.23;;;20.33;;
6121;SDS011;3091;51.506;7.672;2023-03-11T06:47:24;22.13;;;21.13;;
6121;SDS011;3091;51.506;7.672;2023-03-11T06:49:50;21.13;;;20.23;;
6121;SDS011;3091;51.506;7.672;2023-03-11T06:52:16;23.00;;;22.00;;
6121;SDS011;3091;51.506;7.672;2023-03-11T06:54:43;27.40;;;25.90;;
6121;SDS011;3091;51.506;7.672;2023-03-11T06:57:09;26.87;;;25.57;;
6121;SDS011;3091;51.506;7.672;2023-03-11T06:59:35;28.73;;;27.33;;
6121;SDS011;3091;51.506;7.672;2023-03-11T07:02:01;28.67;;;27.27;;
6121;SDS011;3091;51.506;7.672;2023-03-11T07:04:28;29.70;;;28.30;;
6121;SDS011;3091;51.506;7.672;2023-03-11T07:06:54;26.13;;;24.93;;
6121;SDS011;3091;51.506;7.672;2023-03-11T07:09:20;24.07;;;22.97;;
6121;SDS011;3091;51.506;7.672;2023-03-11T07:11:47;24.27;;;23.17;;
6121;SDS011;3091;51.506;7.672;2023-03-11T07:14:14;22.93;;;21.93;;
6121;SDS011;3091;51.506;7.672;2023-03-11T07:16:40;24.50;;;23.40;;
6121;SDS011;3091;51.506;7.672;2023-03-11T07:19:07;24.40;;;23.30;;
6121;SDS011;3091;51.506;7.672;2023-03-11T07:21:33;23.80;;;22.70;;
6121;SDS011;3091;51.506;7.672;2023-03-11T07:24:00;24.73;;;23.63;;
6121;SDS011;3091;51.506;7.672;2023-03-11T07:26:27;24.17;;;23.07;;
6121;SDS011;3091;51.506;7.672;2023-03-11T07:28:54;22.60;;;21.50;;
6121;SDS011;3091;51.506;7.672;2023-03-11T07:31:21;21.40;;;20.40;;
6121;SDS011;3091;51.506;7.672;2023-03-11T07:33:47;21.20;;;20.20;;
6121;SDS011;3091;51.506;7.672;2023-03-11T07:36:16;22.07;;;20.70;;
6121;SDS011;3091;51.506;7.672;2023-03-11T07:38:43;22.97;;;21.77;;
6121;SDS011;3091;51.506;7.672;2023-03-11T07:41:10;23.40;;;22.20;;
6121;SDS011;3091;51.506;7.672;2023-03-11T07:43:36;23.60;;;22.40;;
6121;SDS011;3091;51.506;7.672;2023-03-11T07:46:06;23.70;;;22.50;;
6121;SDS011;3091;51.506;7.672;2023-03-11T07:48:33;23.90;;;22.80;;
6121;SDS011;3091;51.506;7.672;2023-03-11T07:53:28;23.93;;;22.83;;
6121;SDS011;3091;51.506;7.672;2023-03-11T07:55:55;23.63;;;22.53;;
6121;SDS011;3091;51.506;7.672;2023-03-11T07:58:21;24.30;;;23.10;;
6121;SDS011;3091;51.506;7.672;2023-03-11T08:00:47;22.57;;;21.37;;
6121;SDS011;3091;51.506;7.672;2023-03-11T08:03:13;22.20;;;21.00;;
6121;SDS011;3091;51.506;7.672;2023-03-11T08:05:39;22.63;;;21.53;;
6121;SDS011;3091;51.506;7.672;2023-03-11T08:08:05;24.60;;;23.50;;
6121;SDS011;3091;51.506;7.672;2023-03-11T08:10:31;21.83;;;20.83;;
6121;SDS011;3091;51.506;7.672;2023-03-11T08:12:57;23.70;;;22.50;;
6121;SDS011;3091;51.506;7.672;2023-03-11T08:15:25;23.00;;;21.70;;
6121;SDS011;3091;51.506;7.672;2023-03-11T08:17:51;23.17;;;22.07;;
6121;SDS011;3091;51.506;7.672;2023-03-11T08:20:18;24.87;;;23.67;;
6121;SDS011;3091;51.506;7.672;2023-03-11T08:22:44;24.93;;;23.43;;
6121;SDS011;3091;51.506;7.672;2023-03-11T08:25:10;22.60;;;21.50;;
6121;SDS011;3091;51.506;7.672;2023-03-11T08:27:36;21.90;;;20.70;;
6121;SDS011;3091;51.506;7.672;2023-03-11T08:30:03;21.40;;;20.40;;
6121;SDS011;3091;51.506;7.672;2023-03-11T08:32:31;20.33;;;19.53;;
6121;SDS011;3091;51.506;7.672;2023-03-11T08:34:57;19.23;;;18.43;;
6121;SDS011;3091;51.506;7.672;2023-03-11T08:37:23;20.43;;;19.53;;
6121;SDS011;3091;51.506;7.672;2023-03-11T08:39:50;22.20;;;21.20;;
6121;SDS011;3091;51.506;7.672;2023-03-11T08:42:16;22.37;;;21.27;;
6121;SDS011;3091;51.506;7.672;2023-03-11T08:44:43;21.30;;;20.30;;
6121;SDS011;3091;51.506;7.672;2023-03-11T08:47:09;20.60;;;19.70;;
6121;SDS011;3091;51.506;7.672;2023-03-11T08:49:36;20.20;;;19.30;;
6121;SDS011;3091;51.506;7.672;2023-03-11T08:52:04;19.10;;;18.30;;
6121;SDS011;3091;51.506;7.672;2023-03-11T08:54:30;18.80;;;18.00;;
6121;SDS011;3091;51.506;7.672;2023-03-11T08:56:56;18.70;;;18.00;;
6121;SDS011;3091;51.506;7.672;2023-03-11T08:59:26;16.27;;;15.67;;
6121;SDS011;3091;51.506;7.672;2023-03-11T09:01:52;15.53;;;14.93;;
6121;SDS011;3091;51.506;7.672;2023-03-11T09:04:18;14.33;;;13.83;;
6121;SDS011;3091;51.506;7.672;2023-03-11T09:06:44;14.30;;;13.80;;
6121;SDS011;3091;51.506;7.672;2023-03-11T09:09:13;14.70;;;14.20;;
6121;SDS011;3091;51.506;7.672;2023-03-11T09:11:45;14.50;;;14.00;;
6121;SDS011;3091;51.506;7.672;2023-03-11T09:14:13;14.10;;;13.60;;
6121;SDS011;3091;51.506;7.672;2023-03-11T09:16:40;13.90;;;13.40;;
6121;SDS011;3091;51.506;7.672;2023-03-11T09:19:06;14.00;;;13.50;;
6121;SDS011;3091;51.506;7.672;2023-03-11T09:21:32;12.17;;;11.77;;
6121;SDS011;3091;51.506;7.672;2023-03-11T09:23:59;12.30;;;11.90;;
6121;SDS011;3091;51.506;7.672;2023-03-11T09:26:25;12.00;;;11.60;;
6121;SDS011;3091;51.506;7.672;2023-03-11T09:28:51;12.17;;;11.77;;
6121;SDS011;3091;51.506;7.672;2023-03-11T09:31:17;12.00;;;11.60;;
6121;SDS011;3091;51.506;7.672;2023-03-11T09:33:46;12.20;;;11.80;;
6121;SDS011;3091;51.506;7.672;2023-03-11T09:36:15;12.57;;;12.17;;
6121;SDS011;3091;51.506;7.672;2023-03-11T09:38:41;12.60;;;12.20;;
6121;SDS011;3091;51.506;7.672;2023-03-11T09:48:48;12.33;;;11.93;;
6121;SDS011;3091;51.506;7.672;2023-03-11T09:51:19;12.30;;;11.90;;
6121;SDS011;3091;51.506;7.672;2023-03-11T09:53:48;14.50;;;13.90;;
6121;SDS011;3091;51.506;7.672;2023-03-11T09:56:19;13.63;;;13.23;;
6121;SDS011;3091;51.506;7.672;2023-03-11T09:58:49;14.40;;;13.90;;
6121;SDS011;3091;51.506;7.672;2023-03-11T10:03:42;12.80;;;12.40;;
6121;SDS011;3091;51.506;7.672;2023-03-11T10:06:13;13.17;;;12.77;;
6121;SDS011;3091;51.506;7.672;2023-03-11T10:13:44;10.83;;;10.53;;
6121;SDS011;3091;51.506;7.672;2023-03-11T10:16:21;11.60;;;11.30;;
6121;SDS011;3091;51.506;7.672;2023-03-11T10:27:02;10.80;;;10.50;;
6121;SDS011;3091;51.506;7.672;2023-03-11T10:31:56;11.80;;;11.50;;
6121;SDS011;3091;51.506;7.672;2023-03-11T10:34:27;12.77;;;12.37;;
6121;SDS011;3091;51.506;7.672;2023-03-11T10:39:27;13.10;;;12.70;;
6121;SDS011;3091;51.506;7.672;2023-03-11T10:41:54;13.70;;;13.30;;
6121;SDS011;3091;51.506;7.672;2023-03-11T10:44:31;12.90;;;12.50;;
6121;SDS011;3091;51.506;7.672;2023-03-11T10:47:05;12.97;;;12.57;;
6121;SDS011;3091;51.506;7.672;2023-03-11T10:49:31;13.00;;;12.60;;
6121;SDS011;3091;51.506;7.672;2023-03-11T10:51:57;11.60;;;11.30;;
6121;SDS011;3091;51.506;7.672;2023-03-11T10:54:28;11.10;;;10.80;;
6121;SDS011;3091;51.506;7.672;2023-03-11T10:56:58;10.80;;;10.50;;
6121;SDS011;3091;51.506;7.672;2023-03-11T10:59:44;12.03;;;11.70;;
6121;SDS011;3091;51.506;7.672;2023-03-11T11:02:21;13.07;;;12.67;;
6121;SDS011;3091;51.506;7.672;2023-03-11T11:04:59;11.37;;;11.07;;
6121;SDS011;3091;51.506;7.672;2023-03-11T11:07:32;10.70;;;10.40;;
6121;SDS011;3091;51.506;7.672;2023-03-11T11:12:37;11.07;;;10.77;;
6121;SDS011;3091;51.506;7.672;2023-03-11T11:15:03;13.20;;;12.80;;
6121;SDS011;3091;51.506;7.672;2023-03-11T11:17:30;12.67;;;12.27;;
6121;SDS011;3091;51.506;7.672;2023-03-11T11:19:57;10.23;;;9.93;;
6121;SDS011;3091;51.506;7.672;2023-03-11T11:22:24;10.20;;;9.90;;
6121;SDS011;3091;51.506;7.672;2023-03-11T11:24:51;10.80;;;10.50;;
6121;SDS011;3091;51.506;7.672;2023-03-11T11:27:22;11.60;;;11.20;;
6121;SDS011;3091;51.506;7.672;2023-03-11T11:32:32;13.00;;;12.60;;
6121;SDS011;3091;51.506;7.672;2023-03-11T11:35:03;13.43;;;13.03;;
6121;SDS011;3091;51.506;7.672;2023-03-11T11:37:31;13.67;;;13.27;;
6121;SDS011;3091;51.506;7.672;2023-03-11T11:39:59;10.83;;;10.53;;
6121;SDS011;3091;51.506;7.672;2023-03-11T11:42:26;10.83;;;10.53;;
6121;SDS011;3091;51.506;7.672;2023-03-11T11:44:58;10.60;;;10.30;;
6121;SDS011;3091;51.506;7.672;2023-03-11T11:47:27;10.70;;;10.40;;
6121;SDS011;3091;51.506;7.672;2023-03-11T11:49:55;10.57;;;10.27;;
6121;SDS011;3091;51.506;7.672;2023-03-11T11:54:58;12.50;;;12.10;;
6121;SDS011;3091;51.506;7.672;2023-03-11T11:57:25;11.70;;;11.30;;
6121;SDS011;3091;51.506;7.672;2023-03-11T11:59:51;11.67;;;11.27;;
6121;SDS011;3091;51.506;7.672;2023-03-11T12:10:15;11.97;;;11.57;;
6121;SDS011;3091;51.506;7.672;2023-03-11T12:15:49;12.10;;;11.70;;
6121;SDS011;3091;51.506;7.672;2023-03-11T12:18:30;11.70;;;11.30;;
6121;SDS011;3091;51.506;7.672;2023-03-11T12:20:59;11.60;;;11.20;;
6121;SDS011;3091;51.506;7.672;2023-03-11T12:23:37;11.20;;;10.90;;
6121;SDS011;3091;51.506;7.672;2023-03-11T12:31:22;10.13;;;9.83;;
6121;SDS011;3091;51.506;7.672;2023-03-11T12:33:58;10.90;;;10.60;;
6121;SDS011;3091;51.506;7.672;2023-03-11T12:36:36;11.20;;;10.90;;
6121;SDS011;3091;51.506;7.672;2023-03-11T12:39:04;11.10;;;10.70;;
6121;SDS011;3091;51.506;7.672;2023-03-11T12:43:58;12.20;;;11.80;;
6121;SDS011;3091;51.506;7.672;2023-03-11T12:46:58;12.27;;;11.60;;
6121;SDS011;3091;51.506;7.672;2023-03-11T12:49:11;10.27;;;9.97;;
6121;SDS011;3091;51.506;7.672;2023-03-11T12:51:40;10.20;;;9.90;;
6121;SDS011;3091;51.506;7.672;2023-03-11T13:05:31;11.90;;;11.50;;
6121;SDS011;3091;51.506;7.672;2023-03-11T13:08:11;17.37;;;12.63;;
6121;SDS011;3091;51.506;7.672;2023-03-11T13:10:39;12.03;;;11.63;;
6121;SDS011;3091;51.506;7.672;2023-03-11T13:13:22;12.23;;;11.83;;
6121;SDS011;3091;51.506;7.672;2023-03-11T13:15:48;12.00;;;11.60;;
6121;SDS011;3091;51.506;7.672;2023-03-11T13:18:16;11.40;;;11.00;;
6121;SDS011;3091;51.506;7.672;2023-03-11T13:20:44;11.83;;;11.43;;
6121;SDS011;3091;51.506;7.672;2023-03-11T13:23:23;10.83;;;10.50;;
6121;SDS011;3091;51.506;7.672;2023-03-11T13:28:23;10.40;;;10.10;;
6121;SDS011;3091;51.506;7.672;2023-03-11T13:41:36;11.80;;;11.40;;
6121;SDS011;3091;51.506;7.672;2023-03-11T13:44:10;10.40;;;10.10;;
6121;SDS011;3091;51.506;7.672;2023-03-11T13:46:37;10.50;;;10.20;;
6121;SDS011;3091;51.506;7.672;2023-03-11T13:49:11;10.20;;;9.90;;
6121;SDS011;3091;51.506;7.672;2023-03-11T13:51:42;10.30;;;10.00;;
6121;SDS011;3091;51.506;7.672;2023-03-11T13:56:51;10.60;;;10.30;;
6121;SDS011;3091;51.506;7.672;2023-03-11T13:59:23;12.17;;;11.77;;
6121;SDS011;3091;51.506;7.672;2023-03-11T14:01:50;12.00;;;11.60;;
6121;SDS011;3091;51.506;7.672;2023-03-11T14:04:18;12.20;;;11.80;;
6121;SDS011;3091;51.506;7.672;2023-03-11T14:06:45;11.93;;;11.53;;
6121;SDS011;3091;51.506;7.672;2023-03-11T14:09:16;11.70;;;11.30;;
6121;SDS011;3091;51.506;7.672;2023-03-11T14:11:42;12.00;;;11.60;;
6121;SDS011;3091;51.506;7.672;2023-03-11T14:14:26;11.90;;;11.50;;
6121;SDS011;3091;51.506;7.672;2023-03-11T14:16:55;10.60;;;10.30;;
6121;SDS011;3091;51.506;7.672;2023-03-11T14:19:21;10.53;;;10.23;;
6121;SDS011;3091;51.506;7.672;2023-03-11T14:21:49;10.40;;;10.10;;
6121;SDS011;3091;51.506;7.672;2023-03-11T14:24:17;10.50;;;10.20;;
6121;SDS011;3091;51.506;7.672;2023-03-11T14:26:43;10.50;;;10.20;;
6121;SDS011;3091;51.506;7.672;2023-03-11T14:29:51;10.47;;;10.17;;
6121;SDS011;3091;51.506;7.672;2023-03-11T14:31:58;11.37;;;10.97;;
6121;SDS011;3091;51.506;7.672;2023-03-11T14:34:26;11.50;;;11.10;;
6121;SDS011;3091;51.506;7.672;2023-03-11T14:36:59;11.90;;;11.50;;
6121;SDS011;3091;51.506;7.672;2023-03-11T14:39:31;11.50;;;11.10;;
6121;SDS011;3091;51.506;7.672;2023-03-11T14:44:40;11.90;;;11.50;;
6121;SDS011;3091;51.506;7.672;2023-03-11T14:47:10;11.37;;;10.97;;
6121;SDS011;3091;51.506;7.672;2023-03-11T14:49:40;11.20;;;10.90;;
6121;SDS011;3091;51.506;7.672;2023-03-11T14:52:10;10.83;;;10.53;;
6121;SDS011;3091;51.506;7.672;2023-03-11T14:54:39;10.80;;;10.50;;
6121;SDS011;3091;51.506;7.672;2023-03-11T14:57:07;10.63;;;10.33;;
6121;SDS011;3091;51.506;7.672;2023-03-11T14:59:38;10.77;;;10.47;;
6121;SDS011;3091;51.506;7.672;2023-03-11T15:02:27;10.50;;;10.20;;
6121;SDS011;3091;51.506;7.672;2023-03-11T15:04:54;11.17;;;10.87;;
6121;SDS011;3091;51.506;7.672;2023-03-11T15:07:21;12.33;;;11.93;;
6121;SDS011;3091;51.506;7.672;2023-03-11T15:09:47;12.03;;;11.63;;
6121;SDS011;3091;51.506;7.672;2023-03-11T15:14:59;11.47;;;11.07;;
6121;SDS011;3091;51.506;7.672;2023-03-11T15:17:25;12.00;;;11.60;;
6121;SDS011;3091;51.506;7.672;2023-03-11T15:19:55;12.00;;;11.60;;
6121;SDS011;3091;51.506;7.672;2023-03-11T15:22:23;11.90;;;11.50;;
6121;SDS011;3091;51.506;7.672;2023-03-11T15:24:50;11.73;;;11.33;;
6121;SDS011;3091;51.506;7.672;2023-03-11T15:27:20;11.90;;;11.50;;
6121;SDS011;3091;51.506;7.672;2023-03-11T15:29:51;11.70;;;11.30;;
6121;SDS011;3091;51.506;7.672;2023-03-11T15:32:33;11.60;;;11.20;;
6121;SDS011;3091;51.506;7.672;2023-03-11T15:37:29;11.50;;;11.10;;
6121;SDS011;3091;51.506;7.672;2023-03-11T15:39:56;11.50;;;11.10;;
6121;SDS011;3091;51.506;7.672;2023-03-11T15:42:23;11.70;;;11.30;;
6121;SDS011;3091;51.506;7.672;2023-03-11T15:45:09;11.70;;;11.30;;
6121;SDS011;3091;51.506;7.672;2023-03-11T15:47:36;11.67;;;11.27;;
6121;SDS011;3091;51.506;7.672;2023-03-11T15:50:23;11.30;;;10.90;;
6121;SDS011;3091;51.506;7.672;2023-03-11T15:52:50;11.60;;;11.20;;
6121;SDS011;3091;51.506;7.672;2023-03-11T15:55:16;11.40;;;11.00;;
6121;SDS011;3091;51.506;7.672;2023-03-11T15:57:43;11.50;;;11.10;;
6121;SDS011;3091;51.506;7.672;2023-03-11T16:00:17;11.50;;;11.10;;
6121;SDS011;3091;51.506;7.672;2023-03-11T16:02:44;11.70;;;11.30;;
6121;SDS011;3091;51.506;7.672;2023-03-11T16:05:14;11.50;;;11.10;;
6121;SDS011;3091;51.506;7.672;2023-03-11T16:07:43;11.40;;;11.00;;
6121;SDS011;3091;51.506;7.672;2023-03-11T16:10:10;11.60;;;11.20;;
6121;SDS011;3091;51.506;7.672;2023-03-11T16:12:37;12.07;;;11.67;;
6121;SDS011;3091;51.506;7.672;2023-03-11T16:15:03;11.70;;;11.10;;
6121;SDS011;3091;51.506;7.672;2023-03-11T16:17:29;11.67;;;11.27;;
6121;SDS011;3091;51.506;7.672;2023-03-11T16:19:55;11.70;;;11.30;;
6121;SDS011;3091;51.506;7.672;2023-03-11T16:22:23;10.00;;;9.70;;
6121;SDS011;3091;51.506;7.672;2023-03-11T16:24:50;9.77;;;9.47;;
6121;SDS011;3091;51.506;7.672;2023-03-11T16:27:17;9.80;;;9.50;;
6121;SDS011;3091;51.506;7.672;2023-03-11T16:29:44;10.40;;;10.10;;
6121;SDS011;3091;51.506;7.672;2023-03-11T16:32:10;10.60;;;10.30;;
6121;SDS011;3091;51.506;7.672;2023-03-11T16:34:37;11.70;;;11.30;;
6121;SDS011;3091;51.506;7.672;2023-03-11T16:37:07;11.50;;;11.10;;